バンコク/スワンナプーム の空港の天気 - METARとTAF

スワンナプーム国際空港 ( VTBS / BKK ) - タイ サムットプラーカーン県 (バンコク近郊)
飛行場実況気象(Metar)
観測時間10/16 14:30 ICT (10/16 07:30 UTC)
風向・風速東北東 6m/s
視程10km以上
天気現象
少しの雲 雲底高度 610m
気温34℃
湿度56%
気圧1009hPa
METARVTBS 160730Z 07012KT 9999 FEW020 34/24 Q1009 NOSIG
過去の天気等 Google飛行場航空写真 Wunderground天気予報

過去48時間のMETAR

飛行場予報(TAF)
発表時間: 10/16 12:00 ICT (10/16 05:00 UTC)
予報対象時間: 16日13時 ICT ~ 17日19時 ICT
風向・風速東北東 4m/s
視程10km以上
少しの雲 雲底高度 610m
16日19時 ICT ~ 16日21時 ICT に徐々に
風向・風速北 3m/s
17日9時 ICT ~ 17日11時 ICT に徐々に
風向・風速東北東 4m/s
TAF VTBS 160500Z 1606/1712 06008KT 9999 FEW020
BECMG 1612/1614 35005KT
BECMG 1702/1704 06008KT